sensor_id;sensor_type;location;lat;lon;timestamp;P1;durP1;ratioP1;P2;durP2;ratioP2
1613;SDS011;800;48.824;9.346;2023-11-21T00:00:54;4.83;;;2.53;;
1613;SDS011;800;48.824;9.346;2023-11-21T00:03:20;7.83;;;2.17;;
1613;SDS011;800;48.824;9.346;2023-11-21T00:05:48;3.00;;;2.50;;
1613;SDS011;800;48.824;9.346;2023-11-21T00:08:14;4.90;;;2.50;;
1613;SDS011;800;48.824;9.346;2023-11-21T00:10:39;4.10;;;2.43;;
1613;SDS011;800;48.824;9.346;2023-11-21T00:13:05;3.80;;;1.77;;
1613;SDS011;800;48.824;9.346;2023-11-21T00:15:30;6.67;;;2.43;;
1613;SDS011;800;48.824;9.346;2023-11-21T00:17:56;2.60;;;1.90;;
1613;SDS011;800;48.824;9.346;2023-11-21T00:20:21;5.03;;;1.77;;
1613;SDS011;800;48.824;9.346;2023-11-21T00:22:47;3.80;;;1.80;;
1613;SDS011;800;48.824;9.346;2023-11-21T00:25:13;5.03;;;2.10;;
1613;SDS011;800;48.824;9.346;2023-11-21T00:27:40;3.40;;;1.80;;
1613;SDS011;800;48.824;9.346;2023-11-21T00:30:06;7.47;;;2.70;;
1613;SDS011;800;48.824;9.346;2023-11-21T00:32:33;5.73;;;2.00;;
1613;SDS011;800;48.824;9.346;2023-11-21T00:35:00;2.60;;;1.70;;
1613;SDS011;800;48.824;9.346;2023-11-21T00:37:26;5.33;;;2.37;;
1613;SDS011;800;48.824;9.346;2023-11-21T00:39:52;4.93;;;1.90;;
1613;SDS011;800;48.824;9.346;2023-11-21T00:42:17;4.50;;;2.00;;
1613;SDS011;800;48.824;9.346;2023-11-21T00:44:43;4.63;;;2.13;;
1613;SDS011;800;48.824;9.346;2023-11-21T00:47:08;5.10;;;2.13;;
1613;SDS011;800;48.824;9.346;2023-11-21T00:49:34;2.90;;;2.30;;
1613;SDS011;800;48.824;9.346;2023-11-21T00:51:59;4.83;;;2.10;;
1613;SDS011;800;48.824;9.346;2023-11-21T00:54:26;2.23;;;1.90;;
1613;SDS011;800;48.824;9.346;2023-11-21T00:56:52;5.93;;;2.10;;
1613;SDS011;800;48.824;9.346;2023-11-21T00:59:17;5.50;;;2.87;;
1613;SDS011;800;48.824;9.346;2023-11-21T01:01:43;4.23;;;1.93;;
1613;SDS011;800;48.824;9.346;2023-11-21T01:04:09;8.03;;;2.17;;
1613;SDS011;800;48.824;9.346;2023-11-21T01:06:35;3.77;;;2.60;;
1613;SDS011;800;48.824;9.346;2023-11-21T01:09:00;3.13;;;1.90;;
1613;SDS011;800;48.824;9.346;2023-11-21T01:11:26;6.90;;;2.17;;
1613;SDS011;800;48.824;9.346;2023-11-21T01:13:52;3.63;;;2.23;;
1613;SDS011;800;48.824;9.346;2023-11-21T01:16:18;6.83;;;2.00;;
1613;SDS011;800;48.824;9.346;2023-11-21T01:18:44;4.03;;;2.30;;
1613;SDS011;800;48.824;9.346;2023-11-21T01:21:09;4.80;;;2.07;;
1613;SDS011;800;48.824;9.346;2023-11-21T01:23:35;4.27;;;2.10;;
1613;SDS011;800;48.824;9.346;2023-11-21T01:26:00;3.90;;;1.83;;
1613;SDS011;800;48.824;9.346;2023-11-21T01:28:26;4.70;;;2.40;;
1613;SDS011;800;48.824;9.346;2023-11-21T01:30:51;5.23;;;2.30;;
1613;SDS011;800;48.824;9.346;2023-11-21T01:33:21;5.60;;;2.27;;
1613;SDS011;800;48.824;9.346;2023-11-21T01:35:47;4.60;;;2.00;;
1613;SDS011;800;48.824;9.346;2023-11-21T01:38:13;3.10;;;1.67;;
1613;SDS011;800;48.824;9.346;2023-11-21T01:40:40;6.90;;;1.83;;
1613;SDS011;800;48.824;9.346;2023-11-21T01:43:05;3.73;;;1.90;;
1613;SDS011;800;48.824;9.346;2023-11-21T01:45:31;1.43;;;1.33;;
1613;SDS011;800;48.824;9.346;2023-11-21T01:47:58;3.23;;;1.63;;
1613;SDS011;800;48.824;9.346;2023-11-21T01:50:25;3.40;;;1.63;;
1613;SDS011;800;48.824;9.346;2023-11-21T01:52:51;2.77;;;2.10;;
1613;SDS011;800;48.824;9.346;2023-11-21T01:55:17;4.33;;;1.60;;
1613;SDS011;800;48.824;9.346;2023-11-21T01:57:44;5.40;;;1.60;;
1613;SDS011;800;48.824;9.346;2023-11-21T02:00:11;3.87;;;1.70;;
1613;SDS011;800;48.824;9.346;2023-11-21T02:02:43;2.57;;;1.47;;
1613;SDS011;800;48.824;9.346;2023-11-21T02:05:13;2.10;;;1.40;;
1613;SDS011;800;48.824;9.346;2023-11-21T02:07:40;3.00;;;1.57;;
1613;SDS011;800;48.824;9.346;2023-11-21T02:10:07;5.23;;;1.97;;
1613;SDS011;800;48.824;9.346;2023-11-21T02:12:34;4.60;;;1.80;;
1613;SDS011;800;48.824;9.346;2023-11-21T02:15:03;4.17;;;1.70;;
1613;SDS011;800;48.824;9.346;2023-11-21T02:17:34;4.50;;;1.90;;
1613;SDS011;800;48.824;9.346;2023-11-21T02:20:03;2.60;;;1.50;;
1613;SDS011;800;48.824;9.346;2023-11-21T02:22:31;5.93;;;1.70;;
1613;SDS011;800;48.824;9.346;2023-11-21T02:25:02;3.03;;;1.57;;
1613;SDS011;800;48.824;9.346;2023-11-21T02:27:28;2.40;;;1.60;;
1613;SDS011;800;48.824;9.346;2023-11-21T02:29:54;3.90;;;1.87;;
1613;SDS011;800;48.824;9.346;2023-11-21T02:32:19;3.50;;;1.80;;
1613;SDS011;800;48.824;9.346;2023-11-21T02:34:47;3.80;;;2.03;;
1613;SDS011;800;48.824;9.346;2023-11-21T02:37:13;1.77;;;1.63;;
1613;SDS011;800;48.824;9.346;2023-11-21T02:39:39;4.70;;;1.53;;
1613;SDS011;800;48.824;9.346;2023-11-21T02:42:04;5.10;;;2.10;;
1613;SDS011;800;48.824;9.346;2023-11-21T02:44:30;2.67;;;1.50;;
1613;SDS011;800;48.824;9.346;2023-11-21T02:46:55;2.10;;;1.43;;
1613;SDS011;800;48.824;9.346;2023-11-21T02:49:22;1.87;;;1.23;;
1613;SDS011;800;48.824;9.346;2023-11-21T02:51:48;4.50;;;1.43;;
1613;SDS011;800;48.824;9.346;2023-11-21T02:54:14;2.60;;;1.40;;
1613;SDS011;800;48.824;9.346;2023-11-21T02:56:39;2.67;;;1.30;;
1613;SDS011;800;48.824;9.346;2023-11-21T02:59:05;3.83;;;1.67;;
1613;SDS011;800;48.824;9.346;2023-11-21T03:01:30;2.17;;;1.30;;
1613;SDS011;800;48.824;9.346;2023-11-21T03:03:56;1.83;;;1.30;;
1613;SDS011;800;48.824;9.346;2023-11-21T03:06:22;2.40;;;1.57;;
1613;SDS011;800;48.824;9.346;2023-11-21T03:08:48;3.37;;;1.43;;
1613;SDS011;800;48.824;9.346;2023-11-21T03:11:14;1.60;;;1.20;;
1613;SDS011;800;48.824;9.346;2023-11-21T03:13:40;2.37;;;1.50;;
1613;SDS011;800;48.824;9.346;2023-11-21T03:16:09;2.03;;;1.20;;
1613;SDS011;800;48.824;9.346;2023-11-21T03:18:35;3.43;;;1.60;;
1613;SDS011;800;48.824;9.346;2023-11-21T03:21:02;3.43;;;1.50;;
1613;SDS011;800;48.824;9.346;2023-11-21T03:23:28;2.70;;;1.00;;
1613;SDS011;800;48.824;9.346;2023-11-21T03:25:53;5.37;;;1.33;;
1613;SDS011;800;48.824;9.346;2023-11-21T03:28:19;2.33;;;1.53;;
1613;SDS011;800;48.824;9.346;2023-11-21T03:30:44;2.30;;;1.07;;
1613;SDS011;800;48.824;9.346;2023-11-21T03:33:10;2.97;;;1.30;;
1613;SDS011;800;48.824;9.346;2023-11-21T03:35:35;1.53;;;1.20;;
1613;SDS011;800;48.824;9.346;2023-11-21T03:38:01;2.17;;;1.60;;
1613;SDS011;800;48.824;9.346;2023-11-21T03:40:27;3.40;;;1.30;;
1613;SDS011;800;48.824;9.346;2023-11-21T03:42:52;4.93;;;1.20;;
1613;SDS011;800;48.824;9.346;2023-11-21T03:45:18;2.73;;;1.40;;
1613;SDS011;800;48.824;9.346;2023-11-21T03:47:43;2.00;;;1.63;;
1613;SDS011;800;48.824;9.346;2023-11-21T03:50:09;2.70;;;1.13;;
1613;SDS011;800;48.824;9.346;2023-11-21T03:52:35;2.33;;;1.20;;
1613;SDS011;800;48.824;9.346;2023-11-21T03:55:01;2.43;;;1.10;;
1613;SDS011;800;48.824;9.346;2023-11-21T03:57:27;2.50;;;1.30;;
1613;SDS011;800;48.824;9.346;2023-11-21T03:59:53;2.43;;;1.10;;
1613;SDS011;800;48.824;9.346;2023-11-21T04:02:19;1.63;;;1.00;;
1613;SDS011;800;48.824;9.346;2023-11-21T04:04:44;2.50;;;1.20;;
1613;SDS011;800;48.824;9.346;2023-11-21T04:07:10;2.17;;;1.23;;
1613;SDS011;800;48.824;9.346;2023-11-21T04:09:36;2.57;;;1.17;;
1613;SDS011;800;48.824;9.346;2023-11-21T04:12:01;1.60;;;1.50;;
1613;SDS011;800;48.824;9.346;2023-11-21T04:14:27;1.43;;;1.00;;
1613;SDS011;800;48.824;9.346;2023-11-21T04:16:53;1.93;;;1.20;;
1613;SDS011;800;48.824;9.346;2023-11-21T04:19:19;3.67;;;1.40;;
1613;SDS011;800;48.824;9.346;2023-11-21T04:21:45;1.80;;;1.20;;
1613;SDS011;800;48.824;9.346;2023-11-21T04:24:11;1.93;;;1.10;;
1613;SDS011;800;48.824;9.346;2023-11-21T04:26:36;1.07;;;0.97;;
1613;SDS011;800;48.824;9.346;2023-11-21T04:29:02;1.33;;;0.90;;
1613;SDS011;800;48.824;9.346;2023-11-21T04:31:28;1.37;;;1.27;;
1613;SDS011;800;48.824;9.346;2023-11-21T04:33:53;2.20;;;2.10;;
1613;SDS011;800;48.824;9.346;2023-11-21T04:36:19;3.03;;;1.60;;
1613;SDS011;800;48.824;9.346;2023-11-21T04:38:45;2.97;;;1.60;;
1613;SDS011;800;48.824;9.346;2023-11-21T04:41:11;1.73;;;1.20;;
1613;SDS011;800;48.824;9.346;2023-11-21T04:43:37;3.73;;;1.27;;
1613;SDS011;800;48.824;9.346;2023-11-21T04:46:02;2.03;;;1.27;;
1613;SDS011;800;48.824;9.346;2023-11-21T04:48:28;1.63;;;1.13;;
1613;SDS011;800;48.824;9.346;2023-11-21T04:50:54;2.27;;;0.97;;
1613;SDS011;800;48.824;9.346;2023-11-21T04:53:19;2.80;;;1.20;;
1613;SDS011;800;48.824;9.346;2023-11-21T04:55:45;1.83;;;1.00;;
1613;SDS011;800;48.824;9.346;2023-11-21T04:58:11;2.53;;;0.93;;
1613;SDS011;800;48.824;9.346;2023-11-21T05:00:37;2.50;;;1.40;;
1613;SDS011;800;48.824;9.346;2023-11-21T05:03:03;2.70;;;1.23;;
1613;SDS011;800;48.824;9.346;2023-11-21T05:05:29;3.47;;;0.93;;
1613;SDS011;800;48.824;9.346;2023-11-21T05:07:55;1.20;;;0.80;;
1613;SDS011;800;48.824;9.346;2023-11-21T05:10:20;2.53;;;0.97;;
1613;SDS011;800;48.824;9.346;2023-11-21T05:12:47;1.87;;;1.40;;
1613;SDS011;800;48.824;9.346;2023-11-21T05:15:15;7.90;;;4.47;;
1613;SDS011;800;48.824;9.346;2023-11-21T05:17:42;4.67;;;3.43;;
1613;SDS011;800;48.824;9.346;2023-11-21T05:20:09;3.00;;;2.30;;
1613;SDS011;800;48.824;9.346;2023-11-21T05:22:36;1.93;;;1.50;;
1613;SDS011;800;48.824;9.346;2023-11-21T05:25:02;3.47;;;2.10;;
1613;SDS011;800;48.824;9.346;2023-11-21T05:27:29;1.80;;;1.70;;
1613;SDS011;800;48.824;9.346;2023-11-21T05:29:58;2.90;;;1.50;;
1613;SDS011;800;48.824;9.346;2023-11-21T05:32:24;3.27;;;1.60;;
1613;SDS011;800;48.824;9.346;2023-11-21T05:34:50;1.93;;;1.50;;
1613;SDS011;800;48.824;9.346;2023-11-21T05:37:16;3.00;;;1.50;;
1613;SDS011;800;48.824;9.346;2023-11-21T05:39:42;4.20;;;1.37;;
1613;SDS011;800;48.824;9.346;2023-11-21T05:42:08;1.20;;;1.10;;
1613;SDS011;800;48.824;9.346;2023-11-21T05:44:35;1.43;;;1.33;;
1613;SDS011;800;48.824;9.346;2023-11-21T05:47:02;2.93;;;1.40;;
1613;SDS011;800;48.824;9.346;2023-11-21T05:49:28;1.50;;;1.40;;
1613;SDS011;800;48.824;9.346;2023-11-21T05:51:55;1.47;;;1.20;;
1613;SDS011;800;48.824;9.346;2023-11-21T05:54:21;1.80;;;1.17;;
1613;SDS011;800;48.824;9.346;2023-11-21T05:56:48;1.40;;;1.23;;
1613;SDS011;800;48.824;9.346;2023-11-21T05:59:14;2.20;;;1.30;;
1613;SDS011;800;48.824;9.346;2023-11-21T06:01:40;4.93;;;1.50;;
1613;SDS011;800;48.824;9.346;2023-11-21T06:04:05;1.17;;;1.07;;
1613;SDS011;800;48.824;9.346;2023-11-21T06:06:33;1.47;;;1.27;;
1613;SDS011;800;48.824;9.346;2023-11-21T06:08:58;1.03;;;1.03;;
1613;SDS011;800;48.824;9.346;2023-11-21T06:11:24;2.10;;;1.30;;
1613;SDS011;800;48.824;9.346;2023-11-21T06:13:49;2.50;;;1.60;;
1613;SDS011;800;48.824;9.346;2023-11-21T06:16:15;1.87;;;1.37;;
1613;SDS011;800;48.824;9.346;2023-11-21T06:18:43;1.80;;;1.07;;
1613;SDS011;800;48.824;9.346;2023-11-21T06:21:09;3.30;;;1.40;;
1613;SDS011;800;48.824;9.346;2023-11-21T06:23:35;2.50;;;1.30;;
1613;SDS011;800;48.824;9.346;2023-11-21T06:26:01;1.67;;;1.30;;
1613;SDS011;800;48.824;9.346;2023-11-21T06:28:26;2.83;;;1.73;;
1613;SDS011;800;48.824;9.346;2023-11-21T06:30:52;1.40;;;1.30;;
1613;SDS011;800;48.824;9.346;2023-11-21T06:33:18;1.57;;;1.43;;
1613;SDS011;800;48.824;9.346;2023-11-21T06:35:44;2.23;;;1.50;;
1613;SDS011;800;48.824;9.346;2023-11-21T06:38:09;3.33;;;1.93;;
1613;SDS011;800;48.824;9.346;2023-11-21T06:40:35;3.00;;;1.67;;
1613;SDS011;800;48.824;9.346;2023-11-21T06:43:01;1.33;;;1.23;;
1613;SDS011;800;48.824;9.346;2023-11-21T06:45:27;2.33;;;1.53;;
1613;SDS011;800;48.824;9.346;2023-11-21T06:47:52;2.60;;;1.43;;
1613;SDS011;800;48.824;9.346;2023-11-21T06:50:18;1.87;;;1.37;;
1613;SDS011;800;48.824;9.346;2023-11-21T06:52:43;2.53;;;1.80;;
1613;SDS011;800;48.824;9.346;2023-11-21T06:55:09;1.73;;;1.63;;
1613;SDS011;800;48.824;9.346;2023-11-21T06:57:35;2.23;;;1.80;;
1613;SDS011;800;48.824;9.346;2023-11-21T07:00:02;1.97;;;1.77;;
1613;SDS011;800;48.824;9.346;2023-11-21T07:02:27;2.93;;;1.93;;
1613;SDS011;800;48.824;9.346;2023-11-21T07:04:53;2.47;;;1.70;;
1613;SDS011;800;48.824;9.346;2023-11-21T07:07:19;2.10;;;1.90;;
1613;SDS011;800;48.824;9.346;2023-11-21T07:09:45;3.77;;;2.33;;
1613;SDS011;800;48.824;9.346;2023-11-21T07:12:10;1.90;;;1.80;;
1613;SDS011;800;48.824;9.346;2023-11-21T07:14:36;2.37;;;2.17;;
1613;SDS011;800;48.824;9.346;2023-11-21T07:17:04;3.53;;;1.97;;
1613;SDS011;800;48.824;9.346;2023-11-21T07:19:29;2.20;;;2.00;;
1613;SDS011;800;48.824;9.346;2023-11-21T07:21:55;2.70;;;1.23;;
1613;SDS011;800;48.824;9.346;2023-11-21T07:24:21;3.20;;;1.80;;
1613;SDS011;800;48.824;9.346;2023-11-21T07:26:48;1.97;;;1.60;;
1613;SDS011;800;48.824;9.346;2023-11-21T07:29:13;2.60;;;1.57;;
1613;SDS011;800;48.824;9.346;2023-11-21T07:31:39;3.63;;;1.80;;
1613;SDS011;800;48.824;9.346;2023-11-21T07:34:06;2.47;;;2.10;;
1613;SDS011;800;48.824;9.346;2023-11-21T07:36:33;2.03;;;1.83;;
1613;SDS011;800;48.824;9.346;2023-11-21T07:38:58;2.03;;;1.20;;
1613;SDS011;800;48.824;9.346;2023-11-21T07:41:24;2.27;;;1.80;;
1613;SDS011;800;48.824;9.346;2023-11-21T07:43:49;1.80;;;1.50;;
1613;SDS011;800;48.824;9.346;2023-11-21T07:46:15;2.20;;;1.13;;
1613;SDS011;800;48.824;9.346;2023-11-21T07:48:41;2.63;;;1.60;;
1613;SDS011;800;48.824;9.346;2023-11-21T07:51:07;1.73;;;1.30;;
1613;SDS011;800;48.824;9.346;2023-11-21T07:53:34;2.00;;;1.40;;
1613;SDS011;800;48.824;9.346;2023-11-21T07:56:03;2.37;;;1.40;;
1613;SDS011;800;48.824;9.346;2023-11-21T07:58:29;2.23;;;1.20;;
1613;SDS011;800;48.824;9.346;2023-11-21T08:00:55;1.73;;;1.63;;
1613;SDS011;800;48.824;9.346;2023-11-21T08:03:21;7.53;;;1.67;;
1613;SDS011;800;48.824;9.346;2023-11-21T08:05:47;2.03;;;1.83;;
1613;SDS011;800;48.824;9.346;2023-11-21T08:08:12;4.27;;;2.30;;
1613;SDS011;800;48.824;9.346;2023-11-21T08:10:38;3.60;;;2.30;;
1613;SDS011;800;48.824;9.346;2023-11-21T08:13:04;1.90;;;1.67;;
1613;SDS011;800;48.824;9.346;2023-11-21T08:15:31;1.70;;;1.40;;
1613;SDS011;800;48.824;9.346;2023-11-21T08:17:57;2.13;;;1.40;;
1613;SDS011;800;48.824;9.346;2023-11-21T08:20:23;2.43;;;1.67;;
1613;SDS011;800;48.824;9.346;2023-11-21T08:22:50;2.63;;;2.37;;
1613;SDS011;800;48.824;9.346;2023-11-21T08:25:17;2.17;;;1.70;;
1613;SDS011;800;48.824;9.346;2023-11-21T08:27:45;2.30;;;1.70;;
1613;SDS011;800;48.824;9.346;2023-11-21T08:30:11;3.60;;;1.83;;
1613;SDS011;800;48.824;9.346;2023-11-21T08:32:38;2.90;;;1.50;;
1613;SDS011;800;48.824;9.346;2023-11-21T08:35:04;2.20;;;2.00;;
1613;SDS011;800;48.824;9.346;2023-11-21T08:37:30;4.00;;;1.93;;
1613;SDS011;800;48.824;9.346;2023-11-21T08:39:58;2.30;;;1.93;;
1613;SDS011;800;48.824;9.346;2023-11-21T08:42:27;1.90;;;1.70;;
1613;SDS011;800;48.824;9.346;2023-11-21T08:44:54;2.67;;;1.90;;
1613;SDS011;800;48.824;9.346;2023-11-21T08:47:23;3.03;;;1.87;;
1613;SDS011;800;48.824;9.346;2023-11-21T08:49:49;1.70;;;1.60;;
1613;SDS011;800;48.824;9.346;2023-11-21T08:52:18;1.97;;;1.80;;
1613;SDS011;800;48.824;9.346;2023-11-21T08:54:43;2.40;;;1.60;;
1613;SDS011;800;48.824;9.346;2023-11-21T08:57:10;4.13;;;1.53;;
1613;SDS011;800;48.824;9.346;2023-11-21T08:59:35;2.33;;;1.90;;
1613;SDS011;800;48.824;9.346;2023-11-21T09:02:01;2.10;;;1.90;;
1613;SDS011;800;48.824;9.346;2023-11-21T09:04:27;4.27;;;2.00;;
1613;SDS011;800;48.824;9.346;2023-11-21T09:06:53;4.17;;;1.60;;
1613;SDS011;800;48.824;9.346;2023-11-21T09:09:18;2.60;;;1.70;;
1613;SDS011;800;48.824;9.346;2023-11-21T09:11:44;2.37;;;1.97;;
1613;SDS011;800;48.824;9.346;2023-11-21T09:14:11;1.50;;;1.40;;
1613;SDS011;800;48.824;9.346;2023-11-21T09:16:39;4.13;;;1.50;;
1613;SDS011;800;48.824;9.346;2023-11-21T09:19:06;5.87;;;2.00;;
1613;SDS011;800;48.824;9.346;2023-11-21T09:21:31;4.03;;;2.27;;
1613;SDS011;800;48.824;9.346;2023-11-21T09:23:58;5.67;;;3.00;;
1613;SDS011;800;48.824;9.346;2023-11-21T09:26:23;4.20;;;3.30;;
1613;SDS011;800;48.824;9.346;2023-11-21T09:28:49;7.13;;;3.97;;
1613;SDS011;800;48.824;9.346;2023-11-21T09:31:14;2.60;;;2.07;;
1613;SDS011;800;48.824;9.346;2023-11-21T09:33:42;3.87;;;1.93;;
1613;SDS011;800;48.824;9.346;2023-11-21T09:36:12;3.23;;;2.17;;
1613;SDS011;800;48.824;9.346;2023-11-21T09:38:39;5.03;;;2.10;;
1613;SDS011;800;48.824;9.346;2023-11-21T09:41:05;3.63;;;2.20;;
1613;SDS011;800;48.824;9.346;2023-11-21T09:43:35;6.70;;;2.30;;
1613;SDS011;800;48.824;9.346;2023-11-21T09:46:01;2.00;;;1.90;;
1613;SDS011;800;48.824;9.346;2023-11-21T09:48:29;2.17;;;2.00;;
1613;SDS011;800;48.824;9.346;2023-11-21T09:50:55;2.70;;;2.13;;
1613;SDS011;800;48.824;9.346;2023-11-21T09:53:22;4.97;;;3.43;;
1613;SDS011;800;48.824;9.346;2023-11-21T09:55:53;2.23;;;2.03;;
1613;SDS011;800;48.824;9.346;2023-11-21T09:58:19;1.80;;;1.70;;
1613;SDS011;800;48.824;9.346;2023-11-21T10:00:47;2.63;;;2.00;;
1613;SDS011;800;48.824;9.346;2023-11-21T10:03:14;2.40;;;1.63;;
1613;SDS011;800;48.824;9.346;2023-11-21T10:05:41;4.03;;;2.13;;
1613;SDS011;800;48.824;9.346;2023-11-21T10:08:08;2.03;;;1.80;;
1613;SDS011;800;48.824;9.346;2023-11-21T10:10:36;2.37;;;2.00;;
1613;SDS011;800;48.824;9.346;2023-11-21T10:13:04;2.87;;;1.80;;
1613;SDS011;800;48.824;9.346;2023-11-21T10:15:31;5.33;;;2.30;;
1613;SDS011;800;48.824;9.346;2023-11-21T10:17:59;4.70;;;2.93;;
1613;SDS011;800;48.824;9.346;2023-11-21T10:20:28;2.67;;;2.47;;
1613;SDS011;800;48.824;9.346;2023-11-21T10:22:55;2.60;;;1.90;;
1613;SDS011;800;48.824;9.346;2023-11-21T10:25:22;2.10;;;1.93;;
1613;SDS011;800;48.824;9.346;2023-11-21T10:27:48;1.10;;;1.10;;
1613;SDS011;800;48.824;9.346;2023-11-21T10:30:16;1.43;;;1.17;;
1613;SDS011;800;48.824;9.346;2023-11-21T10:32:42;1.77;;;1.30;;
1613;SDS011;800;48.824;9.346;2023-11-21T10:35:08;1.13;;;1.13;;
1613;SDS011;800;48.824;9.346;2023-11-21T10:37:35;1.60;;;1.40;;
1613;SDS011;800;48.824;9.346;2023-11-21T10:40:04;1.30;;;1.20;;
1613;SDS011;800;48.824;9.346;2023-11-21T10:42:32;1.57;;;1.20;;
1613;SDS011;800;48.824;9.346;2023-11-21T10:44:57;1.10;;;1.10;;
1613;SDS011;800;48.824;9.346;2023-11-21T10:47:23;1.93;;;1.10;;
1613;SDS011;800;48.824;9.346;2023-11-21T10:49:49;0.90;;;0.87;;
1613;SDS011;800;48.824;9.346;2023-11-21T10:52:14;1.00;;;1.00;;
1613;SDS011;800;48.824;9.346;2023-11-21T10:54:42;1.30;;;1.20;;
1613;SDS011;800;48.824;9.346;2023-11-21T10:57:08;1.77;;;1.37;;
1613;SDS011;800;48.824;9.346;2023-11-21T10:59:35;1.93;;;1.30;;
1613;SDS011;800;48.824;9.346;2023-11-21T11:02:02;1.47;;;1.20;;
1613;SDS011;800;48.824;9.346;2023-11-21T11:04:50;1.93;;;1.30;;
1613;SDS011;800;48.824;9.346;2023-11-21T11:07:17;2.00;;;1.47;;
1613;SDS011;800;48.824;9.346;2023-11-21T11:09:44;1.40;;;1.30;;
1613;SDS011;800;48.824;9.346;2023-11-21T11:12:12;1.00;;;0.80;;
1613;SDS011;800;48.824;9.346;2023-11-21T11:14:40;2.93;;;0.90;;
1613;SDS011;800;48.824;9.346;2023-11-21T11:17:06;0.80;;;0.80;;
1613;SDS011;800;48.824;9.346;2023-11-21T11:19:34;0.70;;;0.70;;
1613;SDS011;800;48.824;9.346;2023-11-21T11:24:55;1.03;;;1.00;;
1613;SDS011;800;48.824;9.346;2023-11-21T11:28:07;1.50;;;1.40;;
1613;SDS011;800;48.824;9.346;2023-11-21T11:34:00;1.00;;;1.00;;
1613;SDS011;800;48.824;9.346;2023-11-21T11:36:41;1.60;;;1.50;;
1613;SDS011;800;48.824;9.346;2023-11-21T11:39:33;1.97;;;1.73;;
1613;SDS011;800;48.824;9.346;2023-11-21T11:42:01;2.30;;;1.60;;
1613;SDS011;800;48.824;9.346;2023-11-21T11:47:16;2.03;;;1.70;;
1613;SDS011;800;48.824;9.346;2023-11-21T11:50:06;2.17;;;1.97;;
1613;SDS011;800;48.824;9.346;2023-11-21T11:52:41;3.67;;;1.90;;
1613;SDS011;800;48.824;9.346;2023-11-21T11:55:12;1.50;;;1.40;;
1613;SDS011;800;48.824;9.346;2023-11-21T11:57:39;1.37;;;1.17;;
1613;SDS011;800;48.824;9.346;2023-11-21T12:00:12;1.10;;;1.00;;
1613;SDS011;800;48.824;9.346;2023-11-21T12:02:54;1.83;;;1.13;;
1613;SDS011;800;48.824;9.346;2023-11-21T12:05:22;1.30;;;1.20;;
1613;SDS011;800;48.824;9.346;2023-11-21T12:07:51;1.97;;;1.30;;
1613;SDS011;800;48.824;9.346;2023-11-21T12:10:26;1.63;;;1.53;;
1613;SDS011;800;48.824;9.346;2023-11-21T12:12:54;1.53;;;1.43;;
1613;SDS011;800;48.824;9.346;2023-11-21T12:15:23;1.67;;;1.57;;
1613;SDS011;800;48.824;9.346;2023-11-21T12:17:50;1.50;;;1.40;;
1613;SDS011;800;48.824;9.346;2023-11-21T12:20:21;2.00;;;1.90;;
1613;SDS011;800;48.824;9.346;2023-11-21T12:22:50;1.60;;;1.50;;
1613;SDS011;800;48.824;9.346;2023-11-21T12:25:21;1.63;;;1.53;;
1613;SDS011;800;48.824;9.346;2023-11-21T12:27:49;1.40;;;1.20;;
1613;SDS011;800;48.824;9.346;2023-11-21T12:30:16;2.20;;;1.57;;
1613;SDS011;800;48.824;9.346;2023-11-21T12:32:44;1.67;;;1.57;;
1613;SDS011;800;48.824;9.346;2023-11-21T12:35:13;1.70;;;1.60;;
1613;SDS011;800;48.824;9.346;2023-11-21T12:37:39;3.70;;;1.47;;
1613;SDS011;800;48.824;9.346;2023-11-21T12:40:08;1.73;;;1.63;;
1613;SDS011;800;48.824;9.346;2023-11-21T12:42:41;1.80;;;1.70;;
1613;SDS011;800;48.824;9.346;2023-11-21T12:47:43;0.90;;;0.90;;
1613;SDS011;800;48.824;9.346;2023-11-21T12:50:10;1.40;;;1.30;;
1613;SDS011;800;48.824;9.346;2023-11-21T12:52:44;0.90;;;0.90;;
1613;SDS011;800;48.824;9.346;2023-11-21T12:55:17;1.20;;;1.20;;
1613;SDS011;800;48.824;9.346;2023-11-21T12:57:43;1.60;;;1.50;;
1613;SDS011;800;48.824;9.346;2023-11-21T13:00:10;1.23;;;1.13;;
1613;SDS011;800;48.824;9.346;2023-11-21T13:02:42;1.77;;;1.40;;
1613;SDS011;800;48.824;9.346;2023-11-21T13:05:08;1.77;;;1.67;;
1613;SDS011;800;48.824;9.346;2023-11-21T13:07:43;1.70;;;1.60;;
1613;SDS011;800;48.824;9.346;2023-11-21T13:10:12;1.63;;;1.40;;
1613;SDS011;800;48.824;9.346;2023-11-21T13:12:42;1.90;;;1.80;;
1613;SDS011;800;48.824;9.346;2023-11-21T13:15:13;1.60;;;1.50;;
1613;SDS011;800;48.824;9.346;2023-11-21T13:17:42;1.67;;;1.57;;
1613;SDS011;800;48.824;9.346;2023-11-21T13:20:09;4.60;;;1.57;;
1613;SDS011;800;48.824;9.346;2023-11-21T13:22:40;2.80;;;2.43;;
1613;SDS011;800;48.824;9.346;2023-11-21T13:25:14;1.70;;;1.30;;
1613;SDS011;800;48.824;9.346;2023-11-21T13:27:43;1.83;;;1.63;;
1613;SDS011;800;48.824;9.346;2023-11-21T13:30:10;1.90;;;1.80;;
1613;SDS011;800;48.824;9.346;2023-11-21T13:32:40;1.90;;;1.80;;
1613;SDS011;800;48.824;9.346;2023-11-21T13:35:07;2.30;;;1.90;;
1613;SDS011;800;48.824;9.346;2023-11-21T13:37:39;2.03;;;1.90;;
1613;SDS011;800;48.824;9.346;2023-11-21T13:40:05;2.57;;;2.37;;
1613;SDS011;800;48.824;9.346;2023-11-21T13:42:39;2.00;;;1.90;;
1613;SDS011;800;48.824;9.346;2023-11-21T13:45:06;2.00;;;1.90;;
1613;SDS011;800;48.824;9.346;2023-11-21T13:47:31;2.30;;;2.10;;
1613;SDS011;800;48.824;9.346;2023-11-21T13:49:59;2.50;;;2.30;;
1613;SDS011;800;48.824;9.346;2023-11-21T13:52:25;2.50;;;2.30;;
1613;SDS011;800;48.824;9.346;2023-11-21T13:54:53;2.50;;;2.37;;
1613;SDS011;800;48.824;9.346;2023-11-21T13:57:19;2.07;;;1.97;;
1613;SDS011;800;48.824;9.346;2023-11-21T13:59:46;1.20;;;1.10;;
1613;SDS011;800;48.824;9.346;2023-11-21T14:02:12;2.47;;;1.40;;
1613;SDS011;800;48.824;9.346;2023-11-21T14:04:44;1.07;;;1.07;;
1613;SDS011;800;48.824;9.346;2023-11-21T14:07:20;0.90;;;0.90;;
1613;SDS011;800;48.824;9.346;2023-11-21T14:10:01;2.00;;;1.37;;
1613;SDS011;800;48.824;9.346;2023-11-21T14:12:28;1.90;;;1.33;;
1613;SDS011;800;48.824;9.346;2023-11-21T14:14:58;1.40;;;1.30;;
1613;SDS011;800;48.824;9.346;2023-11-21T14:17:24;1.40;;;1.30;;
1613;SDS011;800;48.824;9.346;2023-11-21T14:19:50;1.13;;;1.13;;
1613;SDS011;800;48.824;9.346;2023-11-21T14:22:16;1.40;;;1.30;;
1613;SDS011;800;48.824;9.346;2023-11-21T14:24:42;1.53;;;1.43;;
1613;SDS011;800;48.824;9.346;2023-11-21T14:27:11;1.37;;;1.27;;
1613;SDS011;800;48.824;9.346;2023-11-21T14:29:37;1.10;;;1.10;;
1613;SDS011;800;48.824;9.346;2023-11-21T14:32:06;1.57;;;1.10;;
1613;SDS011;800;48.824;9.346;2023-11-21T14:34:32;1.90;;;1.30;;
1613;SDS011;800;48.824;9.346;2023-11-21T14:36:58;0.90;;;0.90;;
1613;SDS011;800;48.824;9.346;2023-11-21T14:39:24;0.90;;;0.90;;
1613;SDS011;800;48.824;9.346;2023-11-21T14:41:52;2.37;;;1.30;;
1613;SDS011;800;48.824;9.346;2023-11-21T14:44:19;0.90;;;0.90;;
1613;SDS011;800;48.824;9.346;2023-11-21T14:46:45;1.13;;;1.10;;
1613;SDS011;800;48.824;9.346;2023-11-21T14:49:14;2.57;;;1.30;;
1613;SDS011;800;48.824;9.346;2023-11-21T14:51:47;1.50;;;1.40;;
1613;SDS011;800;48.824;9.346;2023-11-21T14:54:23;1.20;;;1.10;;
1613;SDS011;800;48.824;9.346;2023-11-21T14:57:04;1.80;;;1.07;;
1613;SDS011;800;48.824;9.346;2023-11-21T14:59:34;1.47;;;1.37;;
1613;SDS011;800;48.824;9.346;2023-11-21T15:02:00;1.13;;;1.13;;
1613;SDS011;800;48.824;9.346;2023-11-21T15:04:39;1.30;;;1.20;;
1613;SDS011;800;48.824;9.346;2023-11-21T15:07:07;1.40;;;1.30;;
1613;SDS011;800;48.824;9.346;2023-11-21T15:09:33;2.13;;;1.20;;
1613;SDS011;800;48.824;9.346;2023-11-21T15:11:59;1.40;;;1.30;;
1613;SDS011;800;48.824;9.346;2023-11-21T15:14:47;1.17;;;1.00;;
1613;SDS011;800;48.824;9.346;2023-11-21T15:17:17;1.50;;;1.40;;
1613;SDS011;800;48.824;9.346;2023-11-21T15:19:55;2.80;;;1.30;;
1613;SDS011;800;48.824;9.346;2023-11-21T15:22:21;2.13;;;2.00;;
1613;SDS011;800;48.824;9.346;2023-11-21T15:24:47;1.80;;;1.70;;
1613;SDS011;800;48.824;9.346;2023-11-21T15:27:14;4.40;;;1.80;;
1613;SDS011;800;48.824;9.346;2023-11-21T15:29:41;2.30;;;1.70;;
1613;SDS011;800;48.824;9.346;2023-11-21T15:32:07;2.13;;;1.87;;
1613;SDS011;800;48.824;9.346;2023-11-21T15:34:34;2.50;;;1.90;;
1613;SDS011;800;48.824;9.346;2023-11-21T15:37:00;4.00;;;2.70;;
1613;SDS011;800;48.824;9.346;2023-11-21T15:39:26;2.80;;;2.40;;
1613;SDS011;800;48.824;9.346;2023-11-21T15:41:58;2.50;;;2.30;;